Gabbs, Nevada
Current Conditions -  °F | °C
As of 6:13 AM on Wednesday 26 Nov 2014 (Local Time) from KNFL Reporting Station
Few Clouds Few Clouds  
Wind Chill: 24°   Ceiling: Unl
Heat Index: 24°   Visibility: 10mi
Dew Point: 14°   Wind: 0mph
Humidity: 65%   Direction: NA
Pressure: 30.43"   Gusts: NA
Location:  38.87°N, 117.92°W
Report Text: KNFL 261413Z 00000KT 10SM FEW150 M04/M10 A3043 RMK AO2 T10441100
Loading
Personal Weather Stations






























Interactive Weather Map New forecast layout! Learn more

10-Day Weather Forecast

Advertisements
Track Severe Weather on mobile